Time;durP1;ratioP1;P1;durP2;ratioP2;P2;SDS_P1;SDS_P2;PMS_P1;PMS_P2;Temp;Humidity;BMP_temperature;BMP_pressure;BME280_temperature;BME280_humidity;BME280_pressure;Samples;Min_cycle;Max_cycle;Signal;HPM_P1;HPM_P2
2021/09/22 00:00:40;;;;;;;28.27;14.85;;;;;;;9.63;84.82;102901.59;5084648;28;20044;-63
2021/09/22 00:03:05;;;;;;;27.17;13.63;;;;;;;9.59;83.93;102902.31;5081674;28;20107;-61
2021/09/22 00:05:31;;;;;;;26.90;13.43;;;;;;;9.62;84.30;102894.50;5084013;28;20044;-62
2021/09/22 00:07:56;;;;;;;28.33;14.15;;;;;;;9.58;84.01;102897.84;5082861;28;20467;-62
2021/09/22 00:10:22;;;;;;;27.75;14.13;;;;;;;9.56;84.44;102888.97;5082959;28;20113;-61
2021/09/22 00:12:48;;;;;;;28.83;14.52;;;;;;;9.43;84.87;102892.84;5084003;28;20212;-62
2021/09/22 00:15:15;;;;;;;28.80;15.23;;;;;;;9.45;85.28;102896.47;5081819;28;20029;-62
2021/09/22 00:17:41;;;;;;;28.35;15.48;;;;;;;9.46;86.26;102887.69;5084905;28;20528;-62
2021/09/22 00:20:07;;;;;;;28.65;15.43;;;;;;;9.38;86.28;102887.38;5080972;28;20020;-61
2021/09/22 00:22:33;;;;;;;30.20;15.88;;;;;;;9.33;87.36;102894.19;5084373;28;20028;-62
2021/09/22 00:24:58;;;;;;;29.73;15.63;;;;;;;9.22;88.21;102893.75;5082479;28;20493;-63
2021/09/22 00:27:24;;;;;;;28.10;14.70;;;;;;;9.31;86.77;102890.59;5082786;28;20270;-61
2021/09/22 00:29:49;;;;;;;28.40;14.63;;;;;;;9.37;86.05;102889.97;5083875;28;20451;-63
2021/09/22 00:32:14;;;;;;;27.23;14.27;;;;;;;9.28;86.16;102892.22;5081394;28;20082;-62
2021/09/22 00:34:40;;;;;;;27.35;14.07;;;;;;;9.18;87.02;102883.91;5084416;28;20078;-63
2021/09/22 00:37:06;;;;;;;27.23;13.63;;;;;;;9.23;86.76;102884.09;5081222;28;20100;-63
2021/09/22 00:39:34;;;;;;;26.90;14.02;;;;;;;9.20;87.36;102886.59;5083575;28;20028;-61
2021/09/22 00:42:01;;;;;;;27.25;13.77;;;;;;;9.13;86.37;102888.09;5081887;28;20031;-62
2021/09/22 00:44:26;;;;;;;28.85;14.52;;;;;;;9.19;85.95;102892.75;5082845;28;20119;-63
2021/09/22 00:46:51;;;;;;;26.35;14.18;;;;;;;9.18;86.42;102880.38;5082905;28;20108;-62
2021/09/22 00:49:17;;;;;;;29.52;15.10;;;;;;;9.21;87.76;102885.78;5081478;28;20052;-61
2021/09/22 00:51:42;;;;;;;28.40;14.13;;;;;;;9.21;88.29;102885.78;5084207;28;20020;-62
2021/09/22 00:54:07;;;;;;;29.05;14.05;;;;;;;9.23;88.58;102894.66;5080785;28;20032;-63
2021/09/22 00:56:33;;;;;;;26.80;13.88;;;;;;;9.20;88.75;102889.25;5083949;28;20027;-62
2021/09/22 00:58:58;;;;;;;27.15;14.60;;;;;;;9.08;88.35;102901.06;5082327;28;20523;-70
2021/09/22 01:01:23;;;;;;;26.98;13.50;;;;;;;9.05;87.24;102890.38;5082092;28;20045;-69
2021/09/22 01:03:49;;;;;;;26.77;13.27;;;;;;;8.96;87.37;102897.91;5083292;28;20024;-70
2021/09/22 01:06:15;;;;;;;26.15;13.75;;;;;;;8.90;87.46;102895.00;5081086;28;20021;-70
2021/09/22 01:08:41;;;;;;;25.42;13.73;;;;;;;8.76;87.75;102886.47;5088320;28;20032;-70
2021/09/22 01:11:07;;;;;;;25.92;12.73;;;;;;;8.70;88.48;102892.38;5084692;28;20031;-69
2021/09/22 01:13:32;;;;;;;26.15;12.70;;;;;;;8.75;88.77;102895.22;5087792;28;20070;-70
2021/09/22 01:15:58;;;;;;;26.85;12.65;;;;;;;8.67;89.80;102891.34;5085956;28;20039;-69
2021/09/22 01:18:24;;;;;;;27.83;13.52;;;;;;;8.74;89.99;102882.88;5086344;28;20482;-70
2021/09/22 01:20:56;;;;;;;26.63;13.73;;;;;;;8.73;90.71;102889.88;5087367;28;20028;-70
2021/09/22 01:23:23;;;;;;;28.20;13.57;;;;;;;8.70;91.24;102887.09;5085723;28;20093;-70
2021/09/22 01:25:50;;;;;;;26.77;14.02;;;;;;;8.75;90.95;102891.69;5068428;28;20563;-70
2021/09/22 01:28:19;;;;;;;26.23;13.13;;;;;;;8.55;89.36;102883.81;5085332;28;20385;-70
2021/09/22 01:30:46;;;;;;;28.42;14.13;;;;;;;8.61;90.83;102886.72;5087740;28;20024;-70
2021/09/22 01:33:13;;;;;;;28.60;14.02;;;;;;;8.54;89.73;102885.50;5084318;28;20024;-69
2021/09/22 01:35:40;;;;;;;29.98;14.88;;;;;;;8.48;90.95;102879.97;5084726;28;20029;-69
2021/09/22 01:38:09;;;;;;;29.80;15.20;;;;;;;8.47;91.67;102882.53;5087665;28;20016;-70
2021/09/22 01:40:35;;;;;;;26.80;13.60;;;;;;;8.42;90.05;102877.03;5084477;28;20033;-63
2021/09/22 01:43:02;;;;;;;29.73;14.32;;;;;;;8.48;90.27;102879.97;5086905;28;20537;-62
2021/09/22 01:45:27;;;;;;;31.42;15.90;;;;;;;8.44;92.66;102880.66;5085743;28;20032;-63
2021/09/22 01:47:53;;;;;;;31.63;16.55;;;;;;;8.43;93.04;102875.28;5085702;28;20021;-62
2021/09/22 01:50:20;;;;;;;31.65;16.75;;;;;;;8.45;94.31;102871.03;5086850;28;20036;-63
2021/09/22 01:52:49;;;;;;;29.77;15.27;;;;;;;8.33;90.35;102884.50;5084282;28;20389;-64
2021/09/22 01:55:17;;;;;;;30.02;16.27;;;;;;;8.32;92.55;102875.69;5087195;28;20024;-64
2021/09/22 01:57:43;;;;;;;28.85;15.68;;;;;;;8.29;92.47;102865.03;5084158;28;20033;-64
2021/09/22 02:00:09;;;;;;;28.52;15.15;;;;;;;8.27;90.94;102866.69;5087146;28;20120;-64
2021/09/22 02:02:34;;;;;;;28.80;14.93;;;;;;;8.25;90.23;102870.97;5084143;28;20029;-63
2021/09/22 02:05:00;;;;;;;28.40;14.77;;;;;;;8.19;89.43;102868.06;5086161;28;20032;-64
2021/09/22 02:07:26;;;;;;;26.55;13.02;;;;;;;8.11;89.85;102853.63;5085250;28;20387;-64
2021/09/22 02:09:52;;;;;;;27.30;13.95;;;;;;;8.14;90.95;102859.03;5084889;28;20037;-63
2021/09/22 02:12:17;;;;;;;27.08;13.70;;;;;;;8.14;89.14;102856.41;5086610;28;20390;-64
2021/09/22 02:14:42;;;;;;;27.55;13.40;;;;;;;8.12;88.56;102864.22;5083640;28;20032;-63
2021/09/22 02:17:08;;;;;;;25.35;13.05;;;;;;;8.07;88.35;102863.13;5083812;28;20020;-63
2021/09/22 02:19:33;;;;;;;28.38;14.20;;;;;;;7.96;89.38;102859.09;5085280;28;20021;-64
2021/09/22 02:21:58;;;;;;;27.13;13.68;;;;;;;7.96;89.03;102853.81;5084639;28;20028;-63
2021/09/22 02:24:24;;;;;;;27.73;13.77;;;;;;;7.90;89.70;102851.78;5084874;28;20071;-64
2021/09/22 02:26:51;;;;;;;30.42;15.43;;;;;;;7.90;92.78;102848.28;5085994;28;20048;-64
2021/09/22 02:29:18;;;;;;;29.00;16.63;;;;;;;7.93;94.49;102854.56;5083776;28;20020;-63
2021/09/22 02:31:44;;;;;;;27.38;14.65;;;;;;;7.89;91.79;102852.63;5086703;28;20043;-63
2021/09/22 02:34:09;;;;;;;29.98;16.05;;;;;;;7.81;94.85;102859.28;5083584;28;20021;-63
2021/09/22 02:36:34;;;;;;;29.92;16.55;;;;;;;7.81;95.85;102854.88;5085905;28;20020;-64
2021/09/22 02:39:00;;;;;;;28.85;14.85;;;;;;;7.74;92.90;102855.44;5084244;28;20028;-64
2021/09/22 02:41:25;;;;;;;28.13;14.63;;;;;;;7.81;91.98;102856.63;5084962;28;20025;-63
2021/09/22 02:43:51;;;;;;;28.45;15.90;;;;;;;7.70;93.52;102852.56;5085440;28;20034;-63
2021/09/22 02:46:16;;;;;;;28.13;15.45;;;;;;;7.65;93.04;102855.00;5083586;28;20078;-64
2021/09/22 02:48:41;;;;;;;27.95;15.10;;;;;;;7.63;92.69;102852.28;5086617;28;20086;-64
2021/09/22 02:51:07;;;;;;;30.00;16.55;;;;;;;7.56;97.06;102855.44;5082987;28;20052;-62
2021/09/22 02:53:33;;;;;;;30.80;16.60;;;;;;;7.59;97.03;102849.44;5085609;28;20090;-68
2021/09/22 02:55:58;;;;;;;32.75;19.20;;;;;;;7.45;100.00;102854.00;5084273;28;20024;-65
2021/09/22 02:58:24;;;;;;;31.85;19.30;;;;;;;7.33;100.00;102857.84;5084310;28;20032;-64
2021/09/22 03:00:49;;;;;;;30.80;17.05;;;;;;;7.38;100.00;102854.53;5085223;28;20040;-67
2021/09/22 03:03:15;;;;;;;30.70;16.85;;;;;;;7.36;99.87;102848.31;5082675;28;20036;-66
2021/09/22 03:05:41;;;;;;;30.63;15.93;;;;;;;7.37;97.73;102856.28;5086051;28;20115;-65
2021/09/22 03:08:06;;;;;;;30.77;15.77;;;;;;;7.31;95.39;102854.25;5082762;28;20140;-62
2021/09/22 03:10:32;;;;;;;30.65;16.45;;;;;;;7.44;96.69;102846.94;5085194;28;20040;-61
2021/09/22 03:12:57;;;;;;;33.33;18.15;;;;;;;7.43;99.83;102842.53;5084184;28;20479;-64
2021/09/22 03:15:23;;;;;;;32.08;18.63;;;;;;;7.46;100.00;102843.56;5083565;28;20032;-66
2021/09/22 03:17:48;;;;;;;29.48;16.98;;;;;;;7.38;97.07;102839.63;5085244;28;20050;-64
2021/09/22 03:20:14;;;;;;;31.02;17.20;;;;;;;7.46;96.69;102835.66;5082471;28;20082;-61
2021/09/22 03:22:40;;;;;;;38.22;23.33;;;;;;;7.39;100.00;102835.31;5085742;28;20032;-63
2021/09/22 03:25:06;;;;;;;37.55;21.60;;;;;;;7.50;100.00;102834.09;5082693;28;20108;-67
2021/09/22 03:27:31;;;;;;;35.05;22.23;;;;;;;7.43;100.00;102822.38;5084811;28;20025;-63
2021/09/22 03:29:57;;;;;;;36.63;22.40;;;;;;;7.40;100.00;102827.47;5083505;28;20074;-66
2021/09/22 03:32:22;;;;;;;35.90;22.63;;;;;;;7.36;100.00;102824.63;5083232;28;20473;-64
2021/09/22 03:34:47;;;;;;;35.25;21.85;;;;;;;7.31;100.00;102827.94;5085058;28;20028;-66
2021/09/22 03:37:13;;;;;;;34.78;20.95;;;;;;;7.28;100.00;102830.41;5081972;28;20031;-63
2021/09/22 03:39:38;;;;;;;34.60;22.08;;;;;;;7.23;100.00;102833.63;5085058;28;20020;-63
2021/09/22 03:42:03;;;;;;;38.97;24.70;;;;;;;7.25;100.00;102827.63;5082909;28;20031;-63
2021/09/22 03:44:29;;;;;;;36.58;22.70;;;;;;;7.26;100.00;102833.78;5083989;28;20016;-62
2021/09/22 03:46:55;;;;;;;37.10;23.13;;;;;;;7.30;100.00;102822.59;5083983;28;20463;-63
2021/09/22 03:49:20;;;;;;;32.70;20.10;;;;;;;7.32;100.00;102823.56;5082626;28;20032;-62
2021/09/22 03:51:46;;;;;;;36.25;22.17;;;;;;;7.30;100.00;102823.47;5084741;28;20027;-62
2021/09/22 03:54:11;;;;;;;32.67;20.35;;;;;;;7.25;100.00;102822.38;5081802;28;20056;-62
2021/09/22 03:56:37;;;;;;;34.45;20.80;;;;;;;7.24;100.00;102831.09;5084931;28;20086;-63
2021/09/22 03:59:02;;;;;;;36.83;23.30;;;;;;;7.25;100.00;102829.34;5082645;28;20024;-63
2021/09/22 04:01:28;;;;;;;35.05;22.08;;;;;;;7.24;100.00;102830.19;5083461;28;20411;-63
2021/09/22 04:03:54;;;;;;;36.63;23.40;;;;;;;7.21;100.00;102819.50;5083844;28;20024;-62
2021/09/22 04:06:19;;;;;;;37.13;23.30;;;;;;;7.21;100.00;102820.41;5082165;28;20031;-62
2021/09/22 04:08:44;;;;;;;44.05;28.27;;;;;;;7.19;100.00;102816.78;5085263;28;20028;-63
2021/09/22 04:11:10;;;;;;;43.17;28.13;;;;;;;7.18;100.00;102808.81;5081231;28;20020;-63
2021/09/22 04:13:35;;;;;;;38.95;23.92;;;;;;;7.09;100.00;102811.91;5084475;28;20050;-62
2021/09/22 04:16:01;;;;;;;46.17;30.30;;;;;;;7.14;100.00;102810.41;5082550;28;20031;-62
2021/09/22 04:18:26;;;;;;;40.03;26.08;;;;;;;7.13;100.00;102812.13;5082885;28;20032;-63
2021/09/22 04:20:52;;;;;;;36.17;22.15;;;;;;;7.06;100.00;102817.94;5083609;28;20047;-63
2021/09/22 04:23:17;;;;;;;37.80;22.95;;;;;;;7.09;100.00;102811.91;5081759;28;20031;-64
2021/09/22 04:25:42;;;;;;;50.20;34.22;;;;;;;7.15;100.00;102818.38;5084488;28;20020;-62
2021/09/22 04:28:08;;;;;;;46.10;31.52;;;;;;;7.15;100.00;102820.13;5081359;28;20101;-66
2021/09/22 04:30:33;;;;;;;52.90;34.95;;;;;;;7.13;100.00;102811.22;5083690;28;20487;-65
2021/09/22 04:32:58;;;;;;;53.00;35.20;;;;;;;7.13;100.00;102812.13;5082793;28;20417;-66
2021/09/22 04:35:24;;;;;;;54.35;36.40;;;;;;;7.23;100.00;102813.47;5082470;28;20016;-63
2021/09/22 04:37:49;;;;;;;54.88;37.70;;;;;;;7.20;100.00;102810.72;5083660;28;20028;-64
2021/09/22 04:40:15;;;;;;;52.80;36.75;;;;;;;7.23;100.00;102821.38;5081122;28;20099;-62
2021/09/22 04:42:41;;;;;;;53.30;35.13;;;;;;;7.21;100.00;102811.59;5083725;28;20060;-62
2021/09/22 04:45:07;;;;;;;54.90;36.47;;;;;;;7.26;100.00;102813.63;5081546;28;20056;-67
2021/09/22 04:47:33;;;;;;;53.92;36.50;;;;;;;7.31;100.00;102812.16;5083183;28;20036;-62
2021/09/22 04:50:00;;;;;;;56.35;36.85;;;;;;;7.28;100.00;102816.34;5082541;28;20028;-65
2021/09/22 04:52:26;;;;;;;57.58;37.40;;;;;;;7.31;100.00;102817.41;5082343;28;20033;-65
2021/09/22 04:54:52;;;;;;;55.75;36.30;;;;;;;7.32;100.00;102821.84;5083130;28;20032;-66
2021/09/22 04:57:17;;;;;;;56.08;37.00;;;;;;;7.35;100.00;102823.72;5081170;28;20035;-63
2021/09/22 04:59:43;;;;;;;54.53;36.08;;;;;;;7.36;100.00;102819.38;5083901;28;20048;-63
2021/09/22 05:02:08;;;;;;;55.55;36.03;;;;;;;7.36;100.00;102824.63;5080889;28;20081;-67
2021/09/22 05:04:33;;;;;;;53.97;34.90;;;;;;;7.38;100.00;102818.59;5083540;28;20053;-64
2021/09/22 05:06:59;;;;;;;53.65;34.47;;;;;;;7.39;100.00;102825.66;5082287;28;20020;-67
2021/09/22 05:09:24;;;;;;;54.10;35.30;;;;;;;7.44;100.00;102818.00;5082562;28;20379;-65
2021/09/22 05:11:49;;;;;;;52.58;34.45;;;;;;;7.40;100.00;102826.59;5083255;28;20038;-68
2021/09/22 05:14:15;;;;;;;52.45;33.85;;;;;;;7.38;100.00;102829.13;5080430;28;20063;-64
2021/09/22 05:16:40;;;;;;;53.22;34.55;;;;;;;7.37;100.00;102834.31;5065660;28;20052;-66
2021/09/22 05:19:05;;;;;;;56.50;35.65;;;;;;;7.30;100.00;102826.13;5081107;28;20024;-68
2021/09/22 05:21:31;;;;;;;52.15;34.10;;;;;;;7.35;100.00;102825.44;5082632;28;20337;-67
2021/09/22 05:23:56;;;;;;;50.22;31.13;;;;;;;7.36;100.00;102836.03;5082640;28;20028;-66
2021/09/22 05:26:21;;;;;;;47.88;29.20;;;;;;;7.29;100.00;102840.09;5081249;28;20040;-66
2021/09/22 05:28:47;;;;;;;45.13;29.75;;;;;;;7.19;100.00;102840.47;5083579;28;20024;-63
2021/09/22 05:31:12;;;;;;;46.05;28.95;;;;;;;7.10;100.00;102843.53;5080501;28;20029;-67
2021/09/22 05:33:37;;;;;;;45.33;29.35;;;;;;;7.01;100.00;102837.81;5083463;28;20058;-63
2021/09/22 05:36:03;;;;;;;49.08;29.30;;;;;;;7.01;100.00;102842.19;5085855;28;20024;-63
2021/09/22 05:38:28;;;;;;;46.55;28.75;;;;;;;7.00;100.00;102841.25;5068176;28;20028;-64
2021/09/22 05:40:54;;;;;;;58.83;33.40;;;;;;;7.03;100.00;102845.78;5088465;28;20020;-63
2021/09/22 05:43:19;;;;;;;46.35;28.60;;;;;;;7.04;100.00;102847.59;5085863;28;20165;-63
2021/09/22 05:45:44;;;;;;;47.22;28.00;;;;;;;7.08;100.00;102846.94;5088238;28;20020;-62
2021/09/22 05:48:10;;;;;;;43.88;27.58;;;;;;;7.00;100.00;102851.78;5084194;28;20023;-63
2021/09/22 05:50:35;;;;;;;47.50;28.60;;;;;;;7.03;100.00;102853.69;5088070;28;20024;-63
2021/09/22 05:53:01;;;;;;;42.67;27.90;;;;;;;6.98;100.00;102853.44;5088330;28;20028;-62
2021/09/22 05:55:26;;;;;;;48.15;29.20;;;;;;;6.99;100.00;102857.88;5092676;28;20467;-60
2021/09/22 05:57:51;;;;;;;45.92;29.52;;;;;;;7.06;100.00;102856.47;5091232;28;20058;-63
2021/09/22 06:00:17;;;;;;;43.63;28.00;;;;;;;7.06;100.00;102861.72;5086694;28;20043;-62
2021/09/22 06:02:42;;;;;;;43.45;27.33;;;;;;;7.05;100.00;102862.53;5087232;28;20028;-63
2021/09/22 06:05:08;;;;;;;46.03;27.13;;;;;;;7.07;100.00;102864.41;5088181;28;20056;-64
2021/09/22 06:07:34;;;;;;;45.97;27.77;;;;;;;7.06;100.00;102870.53;5091134;28;20024;-63
2021/09/22 06:09:59;;;;;;;43.97;27.70;;;;;;;7.18;100.00;102872.88;5084619;28;20356;-62
2021/09/22 06:12:24;;;;;;;41.88;26.55;;;;;;;7.24;100.00;102873.19;5091154;28;20519;-62
2021/09/22 06:14:50;;;;;;;48.10;27.98;;;;;;;7.35;100.00;102883.34;5086710;28;20036;-63
2021/09/22 06:17:15;;;;;;;45.67;28.73;;;;;;;7.47;100.00;102876.03;5091271;28;20467;-63
2021/09/22 06:19:40;;;;;;;45.67;28.83;;;;;;;7.52;100.00;102874.53;5092213;28;20066;-64
2021/09/22 06:22:06;;;;;;;54.40;34.78;;;;;;;7.73;100.00;102873.78;5087909;28;20027;-62
2021/09/22 06:24:32;;;;;;;56.75;35.33;;;;;;;7.88;100.00;102874.53;5071346;28;20073;-62
2021/09/22 06:26:57;;;;;;;57.55;35.28;;;;;;;8.01;100.00;102874.28;5090178;28;20103;-63
2021/09/22 06:29:23;;;;;;;56.85;35.50;;;;;;;8.15;100.00;102874.03;5091324;28;20438;-64
2021/09/22 06:31:48;;;;;;;53.95;33.97;;;;;;;8.28;100.00;102879.03;5071657;28;20028;-63
2021/09/22 06:34:14;;;;;;;56.72;35.65;;;;;;;8.37;100.00;102871.56;5091268;28;20048;-63
2021/09/22 06:36:39;;;;;;;59.13;35.35;;;;;;;8.48;100.00;102879.97;5086732;28;20067;-63
2021/09/22 06:39:06;;;;;;;54.03;34.33;;;;;;;8.60;100.00;102882.25;5091021;28;20073;-61
2021/09/22 06:41:33;;;;;;;54.28;35.20;;;;;;;8.68;100.00;102886.16;5090407;28;20054;-62
2021/09/22 06:44:00;;;;;;;55.55;35.28;;;;;;;8.77;100.00;102887.41;5090371;28;20032;-61
2021/09/22 06:46:26;;;;;;;52.25;34.22;;;;;;;8.86;100.00;102890.44;5087987;28;20041;-63
2021/09/22 06:48:51;;;;;;;53.05;32.90;;;;;;;8.97;100.00;102885.63;5090595;28;20033;-63
2021/09/22 06:51:20;;;;;;;54.15;33.22;;;;;;;9.05;100.00;102879.84;5091718;28;20020;-62
2021/09/22 06:53:46;;;;;;;52.30;32.92;;;;;;;9.18;98.41;102883.91;5092551;28;20048;-62
2021/09/22 06:56:11;;;;;;;54.83;33.83;;;;;;;9.28;98.70;102884.31;5091783;28;20101;-61
2021/09/22 06:58:36;;;;;;;52.05;33.67;;;;;;;9.38;97.41;102879.47;5091563;28;20020;-62
2021/09/22 07:01:02;;;;;;;50.97;33.35;;;;;;;9.46;95.58;102869.22;5087290;28;20463;-62
2021/09/22 07:03:27;;;;;;;52.70;33.60;;;;;;;9.58;96.09;102871.44;5088634;28;20058;-62
2021/09/22 07:05:53;;;;;;;49.33;33.13;;;;;;;9.66;96.24;102871.78;5088975;28;20031;-62
2021/09/22 07:08:19;;;;;;;52.88;32.28;;;;;;;9.74;95.58;102873.91;5069480;28;20059;-62
2021/09/22 07:10:47;;;;;;;50.38;32.85;;;;;;;9.85;95.17;102886.63;5087608;28;20081;-62
2021/09/22 07:13:15;;;;;;;48.67;32.45;;;;;;;9.93;94.77;102883.44;5070852;28;20098;-63
2021/09/22 07:15:42;;;;;;;50.72;33.00;;;;;;;10.03;92.32;102882.06;5072262;28;20040;-64
2021/09/22 07:18:08;;;;;;;49.95;32.72;;;;;;;10.15;91.93;102884.28;5090308;28;20028;-63
2021/09/22 07:20:33;;;;;;;48.33;31.88;;;;;;;10.28;90.15;102890.91;5091388;28;20388;-64
2021/09/22 07:22:59;;;;;;;46.35;31.35;;;;;;;10.40;89.91;102886.16;5087502;28;20028;-63
2021/09/22 07:25:24;;;;;;;46.22;30.77;;;;;;;10.53;89.25;102889.22;5089039;28;20103;-62
2021/09/22 07:27:50;;;;;;;47.63;30.38;;;;;;;10.61;88.07;102887.78;5090795;28;20020;-62
2021/09/22 07:30:15;;;;;;;47.00;30.38;;;;;;;10.69;88.08;102888.97;5086158;28;20035;-64
2021/09/22 07:32:45;;;;;;;47.80;30.92;;;;;;;10.79;87.51;102893.75;5088799;28;20024;-66
2021/09/22 07:35:12;;;;;;;46.40;29.80;;;;;;;10.90;85.39;102885.28;5089355;28;20027;-64
2021/09/22 07:37:38;;;;;;;44.33;29.80;;;;;;;11.02;84.50;102884.81;5090785;28;20032;-62
2021/09/22 07:40:05;;;;;;;46.00;29.23;;;;;;;11.12;84.94;102893.13;5088629;28;20016;-62
2021/09/22 07:42:32;;;;;;;45.85;29.63;;;;;;;11.27;84.69;102881.25;5052101;28;20467;-62
2021/09/22 07:44:57;;;;;;;41.50;27.95;;;;;;;11.37;83.73;102882.47;5082236;28;20036;-62
2021/09/22 07:47:23;;;;;;;45.45;28.65;;;;;;;11.48;82.05;102879.34;5087281;28;20028;-62
2021/09/22 07:49:49;;;;;;;43.42;28.33;;;;;;;11.63;83.61;102885.97;5087085;28;20023;-62
2021/09/22 07:52:15;;;;;;;43.30;27.88;;;;;;;11.75;83.92;102880.19;5088995;28;20417;-62
2021/09/22 07:54:41;;;;;;;43.42;28.42;;;;;;;11.84;81.14;102869.88;5088049;28;20028;-62
2021/09/22 07:57:07;;;;;;;43.28;28.13;;;;;;;12.01;80.10;102879.28;5088110;28;20031;-65
2021/09/22 07:59:32;;;;;;;46.20;29.25;;;;;;;12.17;79.46;102880.66;5085744;28;20051;-64
2021/09/22 08:01:58;;;;;;;44.20;28.05;;;;;;;12.27;79.26;102880.91;5085256;28;20028;-64
2021/09/22 08:04:24;;;;;;;44.58;29.17;;;;;;;12.42;82.33;102880.47;5086970;28;20053;-63
2021/09/22 08:06:50;;;;;;;44.70;29.98;;;;;;;12.61;79.73;102884.53;5086943;28;20028;-64
2021/09/22 08:09:16;;;;;;;44.83;29.52;;;;;;;12.69;78.37;102870.63;5084170;28;20517;-65
2021/09/22 08:11:42;;;;;;;45.75;29.23;;;;;;;12.87;77.76;102880.88;5084149;28;20032;-65
2021/09/22 08:14:07;;;;;;;42.97;27.98;;;;;;;12.97;76.92;102884.66;5081713;28;20119;-65
2021/09/22 08:16:33;;;;;;;43.08;28.08;;;;;;;13.10;77.13;102877.03;5081855;28;20028;-65
2021/09/22 08:18:58;;;;;;;39.35;25.42;;;;;;;13.17;73.86;102879.00;5083322;28;20020;-64
2021/09/22 08:21:23;;;;;;;38.55;24.95;;;;;;;13.20;72.74;102879.94;5081469;28;20033;-65
2021/09/22 08:23:48;;;;;;;42.03;26.23;;;;;;;13.24;73.35;102876.53;5084840;28;20024;-64
2021/09/22 08:26:14;;;;;;;40.35;25.95;;;;;;;13.35;73.40;102874.19;5081444;28;20024;-65
2021/09/22 08:28:39;;;;;;;40.22;24.42;;;;;;;13.52;70.94;102879.00;5083562;28;20036;-65
2021/09/22 08:31:06;;;;;;;38.80;24.73;;;;;;;13.62;71.97;102878.38;5082775;28;20026;-65
2021/09/22 08:33:31;;;;;;;35.50;22.80;;;;;;;13.68;70.29;102878.50;5064466;28;20457;-64
2021/09/22 08:35:56;;;;;;;36.13;21.98;;;;;;;13.72;68.47;102874.19;5083449;28;20024;-65
2021/09/22 08:38:22;;;;;;;35.70;22.20;;;;;;;13.80;69.71;102893.84;5081426;28;20033;-65
2021/09/22 08:40:47;;;;;;;36.60;22.25;;;;;;;14.05;67.95;102887.34;5084242;28;20023;-64
2021/09/22 08:43:13;;;;;;;37.35;23.13;;;;;;;14.67;68.42;102887.78;5087358;28;20459;-66
2021/09/22 08:45:38;;;;;;;37.28;21.45;;;;;;;15.08;66.09;102890.31;5085521;28;20036;-66
2021/09/22 08:48:04;;;;;;;34.35;20.98;;;;;;;15.16;66.02;102883.38;5090097;28;20063;-65
2021/09/22 08:50:30;;;;;;;34.47;20.13;;;;;;;15.10;64.99;102886.81;5088763;28;20046;-66
2021/09/22 08:52:55;;;;;;;33.58;19.65;;;;;;;15.28;65.77;102882.66;5085421;28;20103;-66
2021/09/22 08:55:20;;;;;;;33.67;20.17;;;;;;;15.46;64.43;102879.41;5087279;28;20044;-66
2021/09/22 08:57:46;;;;;;;33.72;20.27;;;;;;;15.67;62.33;102879.75;5085509;28;20031;-65
2021/09/22 09:00:13;;;;;;;34.47;19.95;;;;;;;15.94;62.99;102877.50;5085691;28;20530;-67
2021/09/22 09:02:41;;;;;;;32.22;18.58;;;;;;;16.43;58.90;102871.94;5090042;28;20039;-68
2021/09/22 09:05:14;;;;;;;32.65;18.17;;;;;;;16.73;60.25;102882.94;5088613;28;20056;-68
2021/09/22 09:08:00;;;;;;;32.13;18.20;;;;;;;17.43;59.21;102881.88;5085973;28;20024;-65
2021/09/22 09:10:29;;;;;;;35.80;17.70;;;;;;;17.66;56.54;102877.56;5085714;28;20032;-65
2021/09/22 09:13:02;;;;;;;31.17;17.65;;;;;;;17.81;54.61;102868.72;5087589;28;20024;-67
2021/09/22 09:15:37;;;;;;;31.70;18.33;;;;;;;18.32;52.38;102867.28;5089858;28;20056;-67
2021/09/22 09:18:21;;;;;;;31.77;18.88;;;;;;;18.59;53.83;102873.59;5085664;28;20510;-66
2021/09/22 09:20:48;;;;;;;31.08;17.67;;;;;;;19.26;51.64;102850.50;5088243;28;20020;-65
2021/09/22 09:23:16;;;;;;;30.77;17.55;;;;;;;20.00;49.55;102853.09;5087495;28;20035;-66
2021/09/22 09:25:56;;;;;;;31.10;17.35;;;;;;;20.44;48.40;102860.03;5086338;28;20375;-68
2021/09/22 09:28:29;;;;;;;31.42;17.55;;;;;;;20.89;47.58;102859.81;5089189;28;20086;-65
2021/09/22 09:31:06;;;;;;;30.30;17.42;;;;;;;21.32;47.23;102854.09;5090491;28;20028;-65
2021/09/22 09:33:41;;;;;;;29.80;17.45;;;;;;;21.94;43.65;102853.47;5086125;28;20017;-65
2021/09/22 09:36:33;;;;;;;30.38;15.95;;;;;;;22.41;43.07;102859.19;5089613;28;20020;-63
2021/09/22 09:39:09;;;;;;;;;;;;;;;22.40;41.01;102862.81;5087378;28;20075;-64
2021/09/22 09:41:49;;;;;;;28.73;15.93;;;;;;;21.71;42.83;102861.81;5092185;28;19927;-64
2021/09/22 09:44:18;;;;;;;29.40;15.52;;;;;;;21.99;40.49;102867.78;5089789;28;20052;-64
2021/09/22 09:46:44;;;;;;;30.27;16.52;;;;;;;21.45;42.44;102860.25;5088966;28;20100;-63
2021/09/22 09:49:11;;;;;;;29.25;15.95;;;;;;;21.39;42.72;102862.97;5071283;28;20036;-63
2021/09/22 09:51:44;;;;;;;28.40;15.80;;;;;;;21.61;42.67;102852.03;5091653;28;20112;-63
2021/09/22 09:54:25;;;;;;;30.40;16.73;;;;;;;21.30;42.10;102865.75;5085473;28;20028;-64
2021/09/22 09:56:53;;;;;;;28.52;15.30;;;;;;;21.30;42.63;102849.63;5089039;28;20036;-64
2021/09/22 09:59:20;;;;;;;30.48;16.23;;;;;;;21.91;41.12;102843.63;5089259;28;20042;-64
2021/09/22 10:01:49;;;;;;;29.10;16.55;;;;;;;22.00;39.86;102852.50;5048643;28;20034;-64
2021/09/22 10:04:17;;;;;;;31.92;17.90;;;;;;;22.17;40.24;102853.19;5048083;28;20438;-64
2021/09/22 10:06:43;;;;;;;31.10;18.40;;;;;;;22.41;39.01;102846.66;5046814;28;20469;-64
2021/09/22 10:09:09;;;;;;;32.70;18.08;;;;;;;22.67;39.43;102844.47;5051960;28;20029;-66
2021/09/22 10:11:36;;;;;;;31.75;18.23;;;;;;;23.23;38.17;102841.81;5050110;28;20032;-66
2021/09/22 10:14:05;;;;;;;33.55;18.50;;;;;;;23.20;38.27;102840.06;5045397;28;20032;-65
2021/09/22 10:16:33;;;;;;;32.22;18.50;;;;;;;23.43;37.40;102841.44;5048051;28;20103;-66
2021/09/22 10:18:59;;;;;;;34.65;19.50;;;;;;;23.43;37.84;102842.34;5042837;28;20380;-65
2021/09/22 10:21:26;;;;;;;32.95;19.45;;;;;;;23.67;37.06;102832.00;5051476;28;20389;-65
2021/09/22 10:23:58;;;;;;;34.10;19.90;;;;;;;23.36;36.97;102827.19;5048793;28;20025;-65
2021/09/22 10:26:24;;;;;;;;;;;;;;;23.53;39.42;102825.97;5046938;28;20029;-65
2021/09/22 10:28:50;;;;;;;33.80;20.13;;;;;;;23.23;37.06;102828.34;5048244;28;19913;-65
2021/09/22 10:31:36;;;;;;;37.53;21.80;;;;;;;23.66;36.51;102824.81;5048324;28;20021;-65
2021/09/22 10:34:02;;;;;;;35.88;19.77;;;;;;;23.87;36.46;102826.25;5049269;28;20140;-66
2021/09/22 10:36:38;;;;;;;33.80;19.50;;;;;;;24.09;35.84;102825.81;5050988;28;20039;-66
2021/09/22 10:39:05;;;;;;;35.78;20.20;;;;;;;23.81;36.63;102826.34;5051007;28;20035;-66
2021/09/22 10:41:38;;;;;;;35.75;20.50;;;;;;;24.24;36.28;102820.03;5047641;28;20036;-66
2021/09/22 10:44:04;;;;;;;35.13;19.98;;;;;;;24.82;34.82;102816.94;5049411;28;20024;-66
2021/09/22 10:46:30;;;;;;;34.90;20.60;;;;;;;25.13;33.00;102805.34;5050033;28;20376;-66
2021/09/22 10:48:57;;;;;;;32.85;18.90;;;;;;;25.24;33.00;102806.84;5047577;28;20044;-65
2021/09/22 10:51:44;;;;;;;35.50;21.17;;;;;;;25.49;34.63;102808.03;5048437;28;20078;-66
2021/09/22 10:54:13;;;;;;;35.58;21.48;;;;;;;26.02;32.83;102813.75;5048865;28;20029;-66
2021/09/22 10:57:15;;;;;;;37.28;22.67;;;;;;;25.65;33.31;102814.78;5049635;28;20033;-65
2021/09/22 10:59:40;;;;;;;35.80;21.05;;;;;;;25.04;33.29;102809.19;4991013;28;20078;-66
2021/09/22 11:02:08;;;;;;;34.50;21.20;;;;;;;24.87;32.60;102805.09;4991770;28;20069;-66
2021/09/22 11:04:57;;;;;;;32.72;18.58;;;;;;;25.19;33.43;102810.59;4991778;28;20677;-66
2021/09/22 11:07:23;;;;;;;33.92;19.15;;;;;;;26.22;30.97;102799.56;4974938;28;20394;-66
2021/09/22 11:09:49;;;;;;;34.58;20.27;;;;;;;27.39;29.13;102794.84;4991238;28;20039;-66